Impacts METAR Board
IDs:

KPIT - Pittsburgh Intl, PA, US

Updated at: 0700 UTC 21 Sep 2018
Potential Impact None Slight Moderate High
Time 20/19Z 20/20Z 20/21Z 20/22Z 20/23Z 21/00Z 21/01Z 21/02Z 21/03Z 21/04Z 21/05Z 21/06Z 21/07Z
Temp82 83 84 83 80 78 76 74 73 73 72 71 70
Dewpt68 66 66 68 68 68 69 69 68 67 67 67 67
Altim30.11 30.10 30.09 30.08 30.08 30.09 30.10 30.10 30.08 30.09 30.08 30.08 30.07
VIS10 10 10 10 10 10 10 10 10 10 10 10 10
CIG250 250 250 -- -- -- -- -- -- -- -- -- --
CoverBKNBKNBKNSCTSCTFEWFEWFEWCLRCLRCLRCLRCLR
FltCatVFRVFRVFRVFRVFRVFRVFRVFRVFRVFRVFRVFRVFR
WX--------------------------
WDir160200170180160150150150170180160170180
WSpd7 8 6 4 4 4 4 5 5 6 5 5 5
WGst-- -- -- -- -- -- -- -- -- -- -- -- --
Raw hourly METARs
KPIT 201851Z 16007KT 10SM SCT033 SCT055 BKN250 28/20 A3011 RMK AO2 SLP195 T02780200
KPIT 201951Z 20008KT 10SM SCT039 SCT050 BKN250 28/19 A3010 RMK AO2 SLP191 T02830189
KPIT 202051Z 17006KT 10SM SCT044 BKN250 29/19 A3009 RMK AO2 SLP189 T02890189 56013
KPIT 202151Z 18004KT 10SM FEW047 SCT250 28/20 A3008 RMK AO2 SLP186 T02830200
KPIT 202251Z 16004KT 10SM SCT250 27/20 A3008 RMK AO2 SLP187 T02670200
KPIT 202351Z 15004KT 10SM FEW250 26/20 A3009 RMK AO2 SLP191 T02560200 10289 20256 55000
KPIT 210051Z 15004KT 10SM FEW250 24/21 A3010 RMK AO2 SLP193 T02440206
KPIT 210151Z 15005KT 10SM FEW250 23/21 A3010 RMK AO2 SLP191 T02330206
KPIT 210251Z 17005KT 10SM CLR 23/20 A3008 RMK AO2 SLP185 T02280200 58003
KPIT 210351Z 18006KT 10SM CLR 23/19 A3009 RMK AO2 SLP186 T02280194
KPIT 210451Z 16005KT 10SM CLR 22/19 A3008 RMK AO2 SLP185 T02220194 402890144
KPIT 210551Z 17005KT 10SM CLR 22/19 A3008 RMK AO2 SLP183 T02170194 10256 20217 58001
KPIT 210651Z 18005KT 10SM CLR 21/19 A3007 RMK AO2 SLP180 T02110194



Page loaded:  07:58 UTC  |   12:58 AM Pacific  |   01:58 AM Mountain  |   02:58 AM Central  |   03:58 AM Eastern

 

ADVISORIES

FORECASTS

FORECASTS

OBSERVATIONS

USER TOOLS

ABOUT US